Time;durP1;ratioP1;P1;durP2;ratioP2;P2;SDS_P1;SDS_P2;PMS_P1;PMS_P2;Temp;Humidity;BMP_temperature;BMP_pressure;BME280_temperature;BME280_humidity;BME280_pressure;Samples;Min_cycle;Max_cycle;Signal;HPM_P1;HPM_P2
2023/04/20 00:02:17;;;;;;;6.75;2.20;;;;;;;;;;4984297;28;20258;-72
2023/04/20 00:04:42;;;;;;;5.93;2.33;;;;;;;;;;4984679;28;20043;-72
2023/04/20 00:07:08;;;;;;;6.78;2.70;;;;;;;;;;4984350;28;20022;-73
2023/04/20 00:09:33;;;;;;;7.63;2.42;;;;;;;;;;4984640;28;20023;-73
2023/04/20 00:11:59;;;;;;;6.32;2.47;;;;;;;;;;4983947;28;20054;-72
2023/04/20 00:14:24;;;;;;;6.10;2.40;;;;;;;;;;4984324;28;20033;-73
2023/04/20 00:16:50;;;;;;;4.95;2.22;;;;;;;;;;4983956;28;20030;-72
2023/04/20 00:19:16;;;;;;;5.47;2.30;;;;;;;;;;4983518;28;20031;-72
2023/04/20 00:21:41;;;;;;;4.38;2.58;;;;;;;;;;4983219;28;20034;-72
2023/04/20 00:24:07;;;;;;;4.97;2.53;;;;;;;;;;4982934;28;20031;-72
2023/04/20 00:26:33;;;;;;;5.35;2.25;;;;;;;;;;4983660;28;20082;-72
2023/04/20 00:28:58;;;;;;;5.35;2.35;;;;;;;;;;4984292;28;20039;-72
2023/04/20 00:31:23;;;;;;;5.03;2.30;;;;;;;;;;4983090;28;20097;-72
2023/04/20 00:33:49;;;;;;;5.43;2.42;;;;;;;;;;4984205;28;20348;-72
2023/04/20 00:36:15;;;;;;;7.38;2.65;;;;;;;;;;4984005;28;20046;-72
2023/04/20 00:38:40;;;;;;;4.07;2.20;;;;;;;;;;4984349;28;20098;-72
2023/04/20 00:41:06;;;;;;;5.95;2.40;;;;;;;;;;4984096;28;20019;-74
2023/04/20 00:43:31;;;;;;;4.43;1.90;;;;;;;;;;4984073;28;20041;-73
2023/04/20 00:45:57;;;;;;;5.30;2.55;;;;;;;;;;4981922;28;20234;-72
2023/04/20 00:48:22;;;;;;;5.40;2.30;;;;;;;;;;4982344;28;20078;-72
2023/04/20 00:50:48;;;;;;;4.65;2.50;;;;;;;;;;4982525;28;20042;-72
2023/04/20 00:53:14;;;;;;;3.80;2.40;;;;;;;;;;4981395;28;20031;-72
2023/04/20 00:55:42;;;;;;;7.38;2.50;;;;;;;;;;4983491;28;20027;-73
2023/04/20 00:58:08;;;;;;;3.25;2.08;;;;;;;;;;4982657;28;20486;-72
2023/04/20 01:00:33;;;;;;;3.92;2.20;;;;;;;;;;4982555;28;20090;-72
2023/04/20 01:02:59;;;;;;;4.85;2.20;;;;;;;;;;4983546;28;20282;-73
2023/04/20 01:05:25;;;;;;;6.57;2.40;;;;;;;;;;4982547;28;20393;-73
2023/04/20 01:07:51;;;;;;;4.28;2.30;;;;;;;;;;4983393;28;20023;-74
2023/04/20 01:10:16;;;;;;;4.65;2.50;;;;;;;;;;4983627;28;20049;-72
2023/04/20 01:12:41;;;;;;;5.30;2.60;;;;;;;;;;4983309;28;20033;-72
2023/04/20 01:15:08;;;;;;;5.88;2.45;;;;;;;;;;4982207;28;20058;-72
2023/04/20 01:17:38;;;;;;;5.10;2.50;;;;;;;;;;4982717;28;20049;-72
2023/04/20 01:20:08;;;;;;;4.82;2.28;;;;;;;;;;4982277;28;20026;-72
2023/04/20 01:22:41;;;;;;;4.57;2.20;;;;;;;;;;4982284;28;20114;-72
2023/04/20 01:25:07;;;;;;;5.07;2.40;;;;;;;;;;4982467;28;20023;-72
2023/04/20 01:27:33;;;;;;;4.45;2.50;;;;;;;;;;4982370;28;20054;-72
2023/04/20 01:29:58;;;;;;;5.05;2.35;;;;;;;;;;4981799;28;20035;-73
2023/04/20 01:32:23;;;;;;;4.03;2.22;;;;;;;;;;4981806;28;20050;-72
2023/04/20 01:34:49;;;;;;;4.82;2.22;;;;;;;;;;4982510;28;20030;-72
2023/04/20 01:37:14;;;;;;;6.80;2.38;;;;;;;;;;4981769;28;20031;-73
2023/04/20 01:39:39;;;;;;;5.65;2.33;;;;;;;;;;4982083;28;20039;-72
2023/04/20 01:42:05;;;;;;;3.90;2.42;;;;;;;;;;4981570;28;20374;-72
2023/04/20 01:44:30;;;;;;;3.28;2.25;;;;;;;;;;4980444;28;20037;-72
2023/04/20 01:46:56;;;;;;;4.32;2.45;;;;;;;;;;4982605;28;20026;-72
2023/04/20 01:49:21;;;;;;;5.53;2.38;;;;;;;;;;4982937;28;20062;-73
2023/04/20 01:51:47;;;;;;;9.88;2.45;;;;;;;;;;4982692;28;20029;-73
2023/04/20 01:54:12;;;;;;;5.80;2.45;;;;;;;;;;4982741;28;20045;-73
2023/04/20 01:56:38;;;;;;;4.55;2.33;;;;;;;;;;4982577;28;20213;-73
2023/04/20 01:59:03;;;;;;;6.20;2.35;;;;;;;;;;4982698;28;20325;-72
2023/04/20 02:01:28;;;;;;;5.88;2.40;;;;;;;;;;4982614;28;20018;-73
2023/04/20 02:03:54;;;;;;;5.40;2.60;;;;;;;;;;4982568;28;20093;-72
2023/04/20 02:06:19;;;;;;;4.72;2.45;;;;;;;;;;4982399;28;20030;-73
2023/04/20 02:08:45;;;;;;;5.50;2.40;;;;;;;;;;4982593;28;20030;-73
2023/04/20 02:11:10;;;;;;;5.72;2.50;;;;;;;;;;4982378;28;20026;-73
2023/04/20 02:13:35;;;;;;;4.07;2.40;;;;;;;;;;4981581;28;20192;-73
2023/04/20 02:16:01;;;;;;;6.00;2.50;;;;;;;;;;4981053;28;20094;-73
2023/04/20 02:18:26;;;;;;;6.07;2.47;;;;;;;;;;4980984;28;20440;-73
2023/04/20 02:20:52;;;;;;;4.57;2.33;;;;;;;;;;4981701;28;20030;-73
2023/04/20 02:23:17;;;;;;;4.82;2.50;;;;;;;;;;4981424;28;20026;-73
2023/04/20 02:25:42;;;;;;;6.57;2.47;;;;;;;;;;4981579;28;20050;-73
2023/04/20 02:28:08;;;;;;;3.78;2.30;;;;;;;;;;4982047;28;20105;-73
2023/04/20 02:30:33;;;;;;;4.15;2.53;;;;;;;;;;4982073;28;20314;-73
2023/04/20 02:32:58;;;;;;;4.38;2.60;;;;;;;;;;4982186;28;20018;-73
2023/04/20 02:35:24;;;;;;;5.50;2.55;;;;;;;;;;4982122;28;20023;-72
2023/04/20 02:37:50;;;;;;;5.47;2.47;;;;;;;;;;4981951;28;20085;-72
2023/04/20 02:40:16;;;;;;;7.90;2.78;;;;;;;;;;4982181;28;20318;-72
2023/04/20 02:42:41;;;;;;;4.07;2.50;;;;;;;;;;4981735;28;20060;-73
2023/04/20 02:45:07;;;;;;;5.38;2.58;;;;;;;;;;4980272;28;20030;-72
2023/04/20 02:47:33;;;;;;;6.35;2.55;;;;;;;;;;4980740;28;20029;-73
2023/04/20 02:49:58;;;;;;;5.25;2.25;;;;;;;;;;4980954;28;20026;-73
2023/04/20 02:52:23;;;;;;;5.28;2.55;;;;;;;;;;4979975;28;20058;-72
2023/04/20 02:54:49;;;;;;;5.60;3.08;;;;;;;;;;4980055;28;20026;-72
2023/04/20 02:57:14;;;;;;;6.45;3.35;;;;;;;;;;4980620;28;20059;-73
2023/04/20 02:59:40;;;;;;;6.03;3.60;;;;;;;;;;4980390;28;20082;-73
2023/04/20 03:02:05;;;;;;;7.68;3.80;;;;;;;;;;4981371;28;20035;-73
2023/04/20 03:04:31;;;;;;;6.55;3.60;;;;;;;;;;4981820;28;20314;-72
2023/04/20 03:06:57;;;;;;;6.50;3.70;;;;;;;;;;4981486;28;20026;-72
2023/04/20 03:09:23;;;;;;;6.28;3.70;;;;;;;;;;4981787;28;20041;-72
2023/04/20 03:11:49;;;;;;;8.25;4.57;;;;;;;;;;4981784;28;20019;-73
2023/04/20 03:14:15;;;;;;;6.32;4.18;;;;;;;;;;4981716;28;20078;-72
2023/04/20 03:16:40;;;;;;;8.93;4.50;;;;;;;;;;4981603;28;20030;-73
2023/04/20 03:19:06;;;;;;;6.53;4.20;;;;;;;;;;4981669;28;20019;-72
2023/04/20 03:21:32;;;;;;;7.80;4.80;;;;;;;;;;4980522;28;20034;-72
2023/04/20 03:23:58;;;;;;;8.13;4.15;;;;;;;;;;4980007;28;20094;-73
2023/04/20 03:26:24;;;;;;;7.03;3.40;;;;;;;;;;4979988;28;20031;-72
2023/04/20 03:28:50;;;;;;;6.53;3.78;;;;;;;;;;4980310;28;20594;-73
2023/04/20 03:31:15;;;;;;;7.03;3.33;;;;;;;;;;4984171;28;20039;-73
2023/04/20 03:33:41;;;;;;;4.95;3.10;;;;;;;;;;4984001;28;20306;-72
2023/04/20 03:36:06;;;;;;;5.85;3.25;;;;;;;;;;4984549;28;20030;-73
2023/04/20 03:38:32;;;;;;;8.75;3.35;;;;;;;;;;4984494;28;20090;-73
2023/04/20 03:40:57;;;;;;;7.35;3.30;;;;;;;;;;4985024;28;20043;-72
2023/04/20 03:43:23;;;;;;;6.18;3.40;;;;;;;;;;4983815;28;20203;-73
2023/04/20 03:45:48;;;;;;;6.93;2.97;;;;;;;;;;4985150;28;20022;-72
2023/04/20 03:48:13;;;;;;;6.72;3.40;;;;;;;;;;4985113;28;20023;-72
2023/04/20 03:50:39;;;;;;;8.82;3.47;;;;;;;;;;4984917;28;20023;-72
2023/04/20 03:53:04;;;;;;;4.97;3.10;;;;;;;;;;4985073;28;20022;-73
2023/04/20 03:55:29;;;;;;;6.57;3.58;;;;;;;;;;4983895;28;20042;-73
2023/04/20 03:57:55;;;;;;;5.22;3.15;;;;;;;;;;4983454;28;20365;-73
2023/04/20 04:00:21;;;;;;;8.07;3.25;;;;;;;;;;4983838;28;20023;-72
2023/04/20 04:02:46;;;;;;;7.30;3.35;;;;;;;;;;4983023;28;20030;-73
2023/04/20 04:05:11;;;;;;;5.35;2.92;;;;;;;;;;4983792;28;20073;-73
2023/04/20 04:07:37;;;;;;;6.30;3.10;;;;;;;;;;4984133;28;20147;-73
2023/04/20 04:10:04;;;;;;;6.43;3.00;;;;;;;;;;4984745;28;20434;-72
2023/04/20 04:12:30;;;;;;;5.40;2.90;;;;;;;;;;4984691;28;20302;-72
2023/04/20 04:14:55;;;;;;;7.00;2.90;;;;;;;;;;4984703;28;20029;-73
2023/04/20 04:17:20;;;;;;;5.63;2.85;;;;;;;;;;4984408;28;20089;-73
2023/04/20 04:19:46;;;;;;;7.43;2.80;;;;;;;;;;4984633;28;20019;-73
2023/04/20 04:22:11;;;;;;;7.97;2.83;;;;;;;;;;4983222;28;20027;-72
2023/04/20 04:24:37;;;;;;;5.38;3.10;;;;;;;;;;4982898;28;20065;-73
2023/04/20 04:27:04;;;;;;;8.57;3.40;;;;;;;;;;4984262;28;20031;-73
2023/04/20 04:29:30;;;;;;;4.97;2.80;;;;;;;;;;4983043;28;20042;-72
2023/04/20 04:31:57;;;;;;;5.63;3.28;;;;;;;;;;4984345;28;20062;-73
2023/04/20 04:34:22;;;;;;;5.38;3.30;;;;;;;;;;4984318;28;20045;-72
2023/04/20 04:36:48;;;;;;;6.43;3.13;;;;;;;;;;4982744;28;20022;-72
2023/04/20 04:39:14;;;;;;;4.78;3.10;;;;;;;;;;4982872;28;20146;-72
2023/04/20 04:41:39;;;;;;;7.72;3.03;;;;;;;;;;4984082;28;20195;-73
2023/04/20 04:44:05;;;;;;;8.15;3.25;;;;;;;;;;4983611;28;20058;-72
2023/04/20 04:46:31;;;;;;;5.72;3.35;;;;;;;;;;4983040;28;20049;-73
2023/04/20 04:48:59;;;;;;;6.28;2.83;;;;;;;;;;4983646;28;20034;-72
2023/04/20 04:51:25;;;;;;;5.93;3.28;;;;;;;;;;4982669;28;20306;-72
2023/04/20 04:53:51;;;;;;;5.95;3.10;;;;;;;;;;4983118;28;20301;-72
2023/04/20 04:56:19;;;;;;;5.55;2.90;;;;;;;;;;4982488;28;20058;-72
2023/04/20 04:58:44;;;;;;;5.80;3.10;;;;;;;;;;4982531;28;20283;-72
2023/04/20 05:01:10;;;;;;;5.97;2.83;;;;;;;;;;4980975;28;20030;-72
2023/04/20 05:03:36;;;;;;;5.90;2.92;;;;;;;;;;4983365;28;20041;-73
2023/04/20 05:06:01;;;;;;;4.82;3.10;;;;;;;;;;4983560;28;20027;-72
2023/04/20 05:08:27;;;;;;;5.53;2.67;;;;;;;;;;4983239;28;20027;-73
2023/04/20 05:10:53;;;;;;;5.50;3.00;;;;;;;;;;4982554;28;20027;-73
2023/04/20 05:13:18;;;;;;;5.20;3.03;;;;;;;;;;4981882;28;20106;-73
2023/04/20 05:15:44;;;;;;;6.78;2.85;;;;;;;;;;4983488;28;20134;-73
2023/04/20 05:18:09;;;;;;;6.13;3.10;;;;;;;;;;4983388;28;20108;-72
2023/04/20 05:20:37;;;;;;;6.05;3.03;;;;;;;;;;4983221;28;20026;-72
2023/04/20 05:23:03;;;;;;;7.30;2.95;;;;;;;;;;4982488;28;20026;-72
2023/04/20 05:25:29;;;;;;;6.55;2.83;;;;;;;;;;4982653;28;20031;-72
2023/04/20 05:27:54;;;;;;;6.13;3.25;;;;;;;;;;4980362;28;20043;-73
2023/04/20 05:30:20;;;;;;;5.40;2.97;;;;;;;;;;4982057;28;20281;-72
2023/04/20 05:32:46;;;;;;;7.40;3.40;;;;;;;;;;4982232;28;20038;-73
2023/04/20 05:35:11;;;;;;;5.82;3.05;;;;;;;;;;4983191;28;20042;-72
2023/04/20 05:37:36;;;;;;;6.30;3.33;;;;;;;;;;4981689;28;20025;-72
2023/04/20 05:40:02;;;;;;;5.78;3.20;;;;;;;;;;4983016;28;20023;-72
2023/04/20 05:42:28;;;;;;;7.90;3.40;;;;;;;;;;4982942;28;20038;-73
2023/04/20 05:44:53;;;;;;;8.18;3.58;;;;;;;;;;4982984;28;20031;-73
2023/04/20 05:47:18;;;;;;;6.68;3.30;;;;;;;;;;4982712;28;20019;-72
2023/04/20 05:49:44;;;;;;;5.90;3.30;;;;;;;;;;4982888;28;20015;-72
2023/04/20 05:52:10;;;;;;;6.50;3.55;;;;;;;;;;4981139;28;20034;-73
2023/04/20 05:54:35;;;;;;;6.97;3.60;;;;;;;;;;4982776;28;20018;-73
2023/04/20 05:57:01;;;;;;;8.25;3.58;;;;;;;;;;4982580;28;20127;-73
2023/04/20 05:59:26;;;;;;;7.53;3.75;;;;;;;;;;4982615;28;20026;-73
2023/04/20 06:01:52;;;;;;;8.65;3.90;;;;;;;;;;4980753;28;20015;-73
2023/04/20 06:04:17;;;;;;;8.20;3.40;;;;;;;;;;4982642;28;20027;-73
2023/04/20 06:06:43;;;;;;;12.95;4.15;;;;;;;;;;4972424;28;20023;-73
2023/04/20 06:09:08;;;;;;;6.90;4.00;;;;;;;;;;4971195;28;20530;-73
2023/04/20 06:11:36;;;;;;;9.65;3.97;;;;;;;;;;4969879;28;20037;-73
2023/04/20 06:14:01;;;;;;;10.70;4.00;;;;;;;;;;4971148;28;20027;-73
2023/04/20 06:16:27;;;;;;;7.22;3.95;;;;;;;;;;4971180;28;20398;-73
2023/04/20 06:18:53;;;;;;;7.80;4.13;;;;;;;;;;4970913;28;20062;-73
2023/04/20 06:21:19;;;;;;;7.57;4.00;;;;;;;;;;4969414;28;20499;-73
2023/04/20 06:23:44;;;;;;;8.57;4.25;;;;;;;;;;4970846;28;20030;-73
2023/04/20 06:26:10;;;;;;;8.40;3.97;;;;;;;;;;4970890;28;20037;-73
2023/04/20 06:28:36;;;;;;;8.43;3.88;;;;;;;;;;4970698;28;20082;-74
2023/04/20 06:31:04;;;;;;;7.00;4.38;;;;;;;;;;4970906;28;20683;-75
2023/04/20 06:33:30;;;;;;;8.30;4.47;;;;;;;;;;4970912;28;20030;-73
2023/04/20 06:35:56;;;;;;;8.60;4.25;;;;;;;;;;4970609;28;20110;-73
2023/04/20 06:38:22;;;;;;;9.32;4.57;;;;;;;;;;4970381;28;20390;-73
2023/04/20 06:40:48;;;;;;;11.52;4.38;;;;;;;;;;4970780;28;20041;-73
2023/04/20 06:43:13;;;;;;;7.55;4.20;;;;;;;;;;4970785;28;20038;-73
2023/04/20 06:45:39;;;;;;;9.63;4.55;;;;;;;;;;4970721;28;20602;-73
2023/04/20 06:48:05;;;;;;;10.40;4.53;;;;;;;;;;4969036;28;20027;-73
2023/04/20 06:50:30;;;;;;;8.65;4.45;;;;;;;;;;4970421;28;20478;-72
2023/04/20 06:52:55;;;;;;;7.35;4.25;;;;;;;;;;4970551;28;20414;-73
2023/04/20 06:55:21;;;;;;;8.80;4.40;;;;;;;;;;4970348;28;20046;-73
2023/04/20 06:57:46;;;;;;;11.35;4.55;;;;;;;;;;4970386;28;20066;-73
2023/04/20 07:00:12;;;;;;;10.18;4.30;;;;;;;;;;4970615;28;20114;-73
2023/04/20 07:02:50;;;;;;;9.27;4.57;;;;;;;;;;4970087;28;20035;-72
2023/04/20 07:05:17;;;;;;;10.07;4.80;;;;;;;;;;4973915;28;20038;-72
2023/04/20 07:07:42;;;;;;;5.60;3.85;;;;;;;;;;4974431;28;20037;-72
2023/04/20 07:10:10;;;;;;;8.32;4.43;;;;;;;;;;4974572;28;20027;-73
2023/04/20 07:12:36;;;;;;;7.20;4.07;;;;;;;;;;4974341;28;20037;-72
2023/04/20 07:15:10;;;;;;;7.65;4.28;;;;;;;;;;4977801;28;20031;-73
2023/04/20 07:17:36;;;;;;;8.70;3.90;;;;;;;;;;4995671;28;20368;-72
2023/04/20 07:20:08;;;;;;;6.20;3.67;;;;;;;;;;4993468;28;20028;-72
2023/04/20 07:22:37;;;;;;;10.88;3.88;;;;;;;;;;4993508;28;20050;-72
2023/04/20 07:25:04;;;;;;;5.88;3.33;;;;;;;;;;4995256;28;20033;-77
2023/04/20 07:27:34;;;;;;;7.18;3.70;;;;;;;;;;4992106;28;20624;-73
2023/04/20 07:29:59;;;;;;;7.90;3.88;;;;;;;;;;4993424;28;20137;-73
2023/04/20 07:32:25;;;;;;;9.63;3.28;;;;;;;;;;4993318;28;20687;-72
2023/04/20 07:34:50;;;;;;;6.90;3.28;;;;;;;;;;4993449;28;20026;-72
2023/04/20 07:37:15;;;;;;;7.15;3.20;;;;;;;;;;4993416;28;20026;-73
2023/04/20 07:39:41;;;;;;;6.13;3.65;;;;;;;;;;4993010;28;20382;-73
2023/04/20 07:42:06;;;;;;;6.32;3.30;;;;;;;;;;4993354;28;20029;-72
2023/04/20 07:44:32;;;;;;;6.68;3.30;;;;;;;;;;4993303;28;20030;-72
2023/04/20 07:46:57;;;;;;;5.72;3.15;;;;;;;;;;4993536;28;20106;-72
2023/04/20 07:49:24;;;;;;;9.40;3.40;;;;;;;;;;4991464;28;20121;-72
2023/04/20 07:51:49;;;;;;;5.00;2.80;;;;;;;;;;4992893;28;20117;-73
2023/04/20 07:54:15;;;;;;;7.97;3.17;;;;;;;;;;4992971;28;20109;-73
2023/04/20 07:56:40;;;;;;;7.03;3.00;;;;;;;;;;4993127;28;20044;-73
2023/04/20 07:59:07;;;;;;;7.10;3.00;;;;;;;;;;4992624;28;20023;-72
2023/04/20 08:01:33;;;;;;;8.52;3.00;;;;;;;;;;4992950;28;20034;-72
2023/04/20 08:03:59;;;;;;;5.45;3.00;;;;;;;;;;4992768;28;20030;-73
2023/04/20 08:06:26;;;;;;;7.78;3.42;;;;;;;;;;4992535;28;20102;-73
2023/04/20 08:08:52;;;;;;;6.80;3.08;;;;;;;;;;4992488;28;20030;-73
2023/04/20 08:11:17;;;;;;;7.18;2.88;;;;;;;;;;4991721;28;20026;-72
2023/04/20 08:13:42;;;;;;;7.75;2.83;;;;;;;;;;4992848;28;20025;-72
2023/04/20 08:16:08;;;;;;;6.38;2.80;;;;;;;;;;4992252;28;20109;-73
2023/04/20 08:18:33;;;;;;;10.40;3.17;;;;;;;;;;4992563;28;20022;-73
2023/04/20 08:20:59;;;;;;;9.15;3.00;;;;;;;;;;4992479;28;20018;-73
2023/04/20 08:23:26;;;;;;;5.32;3.15;;;;;;;;;;4992445;28;20121;-73
2023/04/20 08:25:56;;;;;;;9.15;3.35;;;;;;;;;;4992879;28;20449;-73
2023/04/20 08:28:22;;;;;;;5.38;2.63;;;;;;;;;;4990762;28;20054;-72
2023/04/20 08:30:48;;;;;;;7.45;3.20;;;;;;;;;;4992424;28;20161;-73
2023/04/20 08:33:14;;;;;;;8.38;3.03;;;;;;;;;;4992551;28;20022;-73
2023/04/20 08:35:39;;;;;;;6.82;3.15;;;;;;;;;;4990408;28;20041;-73
2023/04/20 08:38:05;;;;;;;8.73;3.13;;;;;;;;;;4989879;28;20127;-75
2023/04/20 08:40:31;;;;;;;6.20;2.90;;;;;;;;;;4991272;28;20029;-73
2023/04/20 08:43:00;;;;;;;6.43;2.78;;;;;;;;;;4991345;28;20038;-73
2023/04/20 08:45:26;;;;;;;5.30;2.67;;;;;;;;;;4990789;28;20109;-74
2023/04/20 08:47:51;;;;;;;5.97;2.75;;;;;;;;;;4991714;28;20184;-75
2023/04/20 08:50:18;;;;;;;6.07;3.17;;;;;;;;;;4991867;28;20118;-74
2023/04/20 08:52:44;;;;;;;8.63;3.03;;;;;;;;;;4991992;28;20113;-74
2023/04/20 08:55:13;;;;;;;5.65;2.60;;;;;;;;;;4991908;28;20161;-74
2023/04/20 08:57:40;;;;;;;6.53;2.80;;;;;;;;;;4991850;28;20037;-76
2023/04/20 09:00:09;;;;;;;5.72;3.00;;;;;;;;;;4991504;28;20052;-78
2023/04/20 09:02:34;;;;;;;5.55;2.45;;;;;;;;;;4990684;28;20038;-74
2023/04/20 09:05:03;;;;;;;5.70;2.70;;;;;;;;;;4991724;28;20113;-73
2023/04/20 09:07:29;;;;;;;10.43;3.00;;;;;;;;;;4991680;28;20301;-71
2023/04/20 09:09:59;;;;;;;6.75;2.60;;;;;;;;;;4991607;28;20154;-73
2023/04/20 09:12:25;;;;;;;6.85;2.90;;;;;;;;;;4991783;28;20030;-74
2023/04/20 09:14:51;;;;;;;7.25;2.58;;;;;;;;;;4991531;28;20033;-72
2023/04/20 09:17:31;;;;;;;8.90;2.83;;;;;;;;;;4991372;28;20026;-74
2023/04/20 09:19:56;;;;;;;12.77;2.60;;;;;;;;;;4991301;28;20549;-73
2023/04/20 09:22:30;;;;;;;6.95;2.70;;;;;;;;;;4991126;28;20669;-71
2023/04/20 09:24:55;;;;;;;6.35;2.63;;;;;;;;;;4991393;28;20026;-75
2023/04/20 09:27:22;;;;;;;8.88;2.70;;;;;;;;;;4989133;28;20173;-77
2023/04/20 09:30:02;;;;;;;6.43;2.90;;;;;;;;;;4990912;28;20130;-73
2023/04/20 09:32:28;;;;;;;5.55;2.70;;;;;;;;;;4991380;28;20030;-74
2023/04/20 09:34:54;;;;;;;9.32;3.00;;;;;;;;;;4989712;28;20026;-73
2023/04/20 09:37:21;;;;;;;18.60;3.13;;;;;;;;;;4990989;28;20359;-77
2023/04/20 09:39:47;;;;;;;5.72;2.30;;;;;;;;;;4980536;28;20027;-73
2023/04/20 09:42:14;;;;;;;5.18;2.67;;;;;;;;;;4971645;28;20098;-75
2023/04/20 09:44:40;;;;;;;4.20;2.15;;;;;;;;;;4971520;28;20097;-75
2023/04/20 09:47:06;;;;;;;4.80;2.30;;;;;;;;;;4975453;28;20106;-75
2023/04/20 09:49:32;;;;;;;3.58;2.05;;;;;;;;;;4980948;28;20028;-75
2023/04/20 09:52:01;;;;;;;5.75;2.08;;;;;;;;;;4971415;28;20030;-75
2023/04/20 09:54:27;;;;;;;6.93;2.10;;;;;;;;;;4976269;28;20036;-75
2023/04/20 09:56:53;;;;;;;5.53;2.33;;;;;;;;;;4972522;28;20042;-76
2023/04/20 09:59:20;;;;;;;6.50;2.20;;;;;;;;;;4969462;28;20027;-76
2023/04/20 10:01:46;;;;;;;5.60;1.90;;;;;;;;;;4968679;28;20031;-75
2023/04/20 10:04:13;;;;;;;3.58;1.77;;;;;;;;;;4969411;28;20131;-75
2023/04/20 10:06:39;;;;;;;4.25;1.75;;;;;;;;;;4968809;28;20033;-75
2023/04/20 10:09:07;;;;;;;5.22;1.75;;;;;;;;;;4967890;28;20113;-77
2023/04/20 10:11:40;;;;;;;4.10;1.77;;;;;;;;;;4968176;28;20026;-76
2023/04/20 10:14:17;;;;;;;4.65;1.77;;;;;;;;;;4968387;28;20404;-76
2023/04/20 10:16:45;;;;;;;5.30;2.05;;;;;;;;;;4969275;28;20047;-76
2023/04/20 10:19:11;;;;;;;3.45;1.67;;;;;;;;;;4969246;28;20073;-75
2023/04/20 10:21:48;;;;;;;9.48;1.60;;;;;;;;;;4969532;28;20475;-76
2023/04/20 10:24:14;;;;;;;7.38;2.13;;;;;;;;;;4969722;28;20521;-76
2023/04/20 10:26:44;;;;;;;7.78;2.03;;;;;;;;;;4970836;28;20031;-76
2023/04/20 10:29:23;;;;;;;7.68;1.90;;;;;;;;;;4970459;28;20127;-77
2023/04/20 10:31:49;;;;;;;4.75;1.63;;;;;;;;;;4969409;28;20065;-76
2023/04/20 10:34:14;;;;;;;3.42;1.55;;;;;;;;;;4970913;28;20058;-76
2023/04/20 10:36:40;;;;;;;4.78;1.65;;;;;;;;;;4970572;28;20090;-76
2023/04/20 10:39:16;;;;;;;3.67;1.70;;;;;;;;;;4970741;28;20034;-77
2023/04/20 10:41:53;;;;;;;4.53;1.83;;;;;;;;;;4970882;28;20033;-76
2023/04/20 10:44:18;;;;;;;4.15;1.88;;;;;;;;;;4970611;28;20037;-75
2023/04/20 10:46:48;;;;;;;4.80;1.70;;;;;;;;;;4970450;28;20030;-75
2023/04/20 10:49:13;;;;;;;3.08;1.50;;;;;;;;;;4970544;28;20086;-75
2023/04/20 10:51:46;;;;;;;2.78;1.27;;;;;;;;;;4970277;28;20026;-75
2023/04/20 10:54:11;;;;;;;4.15;1.70;;;;;;;;;;4970559;28;20450;-75
2023/04/20 10:56:41;;;;;;;5.55;1.83;;;;;;;;;;4969049;28;20133;-76
2023/04/20 10:59:10;;;;;;;6.93;1.90;;;;;;;;;;4970481;28;20084;-75
2023/04/20 11:01:36;;;;;;;4.50;1.50;;;;;;;;;;4970241;28;20031;-75
2023/04/20 11:04:03;;;;;;;4.35;1.60;;;;;;;;;;4968872;28;20042;-75
2023/04/20 11:06:30;;;;;;;3.53;1.63;;;;;;;;;;4968786;28;20023;-76
2023/04/20 11:08:56;;;;;;;6.47;1.67;;;;;;;;;;4970311;28;20406;-75
2023/04/20 11:11:26;;;;;;;3.97;1.60;;;;;;;;;;4970198;28;20110;-75
2023/04/20 11:13:52;;;;;;;;;;;;;;;;;;4970822;28;20105;-75
2023/04/20 11:16:18;;;;;;;2.97;1.40;;;;;;;;;;4970496;28;20013;-76
2023/04/20 11:18:53;;;;;;;4.32;1.75;;;;;;;;;;4970421;28;20026;-76
2023/04/20 11:21:20;;;;;;;2.88;1.48;;;;;;;;;;4970044;28;20146;-76
2023/04/20 11:23:47;;;;;;;3.80;1.60;;;;;;;;;;4968631;28;20101;-76
2023/04/20 11:26:12;;;;;;;3.08;1.40;;;;;;;;;;4970191;28;20633;-75
2023/04/20 11:28:48;;;;;;;3.17;1.33;;;;;;;;;;4970109;28;20094;-77
2023/04/20 11:31:17;;;;;;;3.22;1.50;;;;;;;;;;4970203;28;20043;-76
2023/04/20 11:33:42;;;;;;;5.25;1.75;;;;;;;;;;4970239;28;20037;-76
2023/04/20 11:36:23;;;;;;;3.05;1.40;;;;;;;;;;4969874;28;20101;-75
2023/04/20 11:38:50;;;;;;;6.30;1.55;;;;;;;;;;4970111;28;20039;-75
2023/04/20 11:41:16;;;;;;;3.22;1.50;;;;;;;;;;4969840;28;20031;-76
2023/04/20 11:43:42;;;;;;;6.07;1.90;;;;;;;;;;4970025;28;20541;-76
2023/04/20 11:46:16;;;;;;;4.60;1.92;;;;;;;;;;4970250;28;20106;-76
2023/04/20 11:48:42;;;;;;;4.70;1.48;;;;;;;;;;4970052;28;20088;-76
2023/04/20 11:51:07;;;;;;;3.58;1.65;;;;;;;;;;4972635;28;20115;-75
2023/04/20 11:53:33;;;;;;;3.45;1.67;;;;;;;;;;4973600;28;20110;-76
2023/04/20 11:55:59;;;;;;;3.72;1.70;;;;;;;;;;4973623;28;20030;-75
2023/04/20 11:58:24;;;;;;;3.85;1.63;;;;;;;;;;4973388;28;20035;-76
2023/04/20 12:00:49;;;;;;;4.15;1.52;;;;;;;;;;4973376;28;20034;-75
2023/04/20 12:03:15;;;;;;;3.60;1.77;;;;;;;;;;4973472;28;20042;-75
2023/04/20 12:05:41;;;;;;;4.47;1.60;;;;;;;;;;4971942;28;20026;-75
2023/04/20 12:08:07;;;;;;;3.50;1.60;;;;;;;;;;4973521;28;20041;-76
2023/04/20 12:10:33;;;;;;;7.07;2.50;;;;;;;;;;4973127;28;20027;-75
2023/04/20 12:12:59;;;;;;;5.50;1.80;;;;;;;;;;4974250;28;20023;-76
2023/04/20 12:15:25;;;;;;;2.97;1.85;;;;;;;;;;4973124;28;20030;-75
2023/04/20 12:17:51;;;;;;;5.10;1.83;;;;;;;;;;4973118;28;20031;-75
2023/04/20 12:20:17;;;;;;;4.15;1.80;;;;;;;;;;4973013;28;20030;-76
2023/04/20 12:22:42;;;;;;;8.05;1.90;;;;;;;;;;4972908;28;20507;-75
2023/04/20 12:25:08;;;;;;;4.45;1.90;;;;;;;;;;4973242;28;20085;-75
2023/04/20 12:27:34;;;;;;;2.88;1.60;;;;;;;;;;4971560;28;20041;-75
2023/04/20 12:29:59;;;;;;;5.07;1.70;;;;;;;;;;4972956;28;20026;-75
2023/04/20 12:32:25;;;;;;;4.72;1.70;;;;;;;;;;4972464;28;20031;-76
2023/04/20 12:34:50;;;;;;;5.60;2.00;;;;;;;;;;4972649;28;20442;-76
2023/04/20 12:37:16;;;;;;;5.47;1.80;;;;;;;;;;4974189;28;20629;-77
2023/04/20 12:39:41;;;;;;;3.72;1.70;;;;;;;;;;4972726;28;20023;-75
2023/04/20 12:42:06;;;;;;;4.65;1.65;;;;;;;;;;4972593;28;20113;-75
2023/04/20 12:44:32;;;;;;;5.88;1.70;;;;;;;;;;4972797;28;20034;-76
2023/04/20 12:46:57;;;;;;;7.72;1.50;;;;;;;;;;4977982;28;20073;-76
2023/04/20 12:49:22;;;;;;;4.57;1.70;;;;;;;;;;4991686;28;20439;-74
2023/04/20 12:51:48;;;;;;;7.38;1.70;;;;;;;;;;4991535;28;20022;-75
2023/04/20 12:54:13;;;;;;;2.67;1.58;;;;;;;;;;4991895;28;20533;-75
2023/04/20 12:56:39;;;;;;;4.05;1.80;;;;;;;;;;4992006;28;20034;-76
2023/04/20 12:59:04;;;;;;;5.22;1.65;;;;;;;;;;4993210;28;20026;-75
2023/04/20 13:01:29;;;;;;;5.95;1.75;;;;;;;;;;4999729;28;20030;-76
2023/04/20 13:03:55;;;;;;;6.07;2.03;;;;;;;;;;4997210;28;20031;-76
2023/04/20 13:06:20;;;;;;;5.20;1.75;;;;;;;;;;5001814;28;20058;-73
2023/04/20 13:08:46;;;;;;;8.20;1.98;;;;;;;;;;5002886;28;20030;-76
2023/04/20 13:11:14;;;;;;;4.50;1.67;;;;;;;;;;4996777;28;20027;-75
2023/04/20 13:13:40;;;;;;;5.05;1.70;;;;;;;;;;4991261;28;20035;-75
2023/04/20 13:16:05;;;;;;;3.75;1.50;;;;;;;;;;4987343;28;20030;-75
2023/04/20 13:18:31;;;;;;;4.53;1.65;;;;;;;;;;4993037;28;20026;-75
2023/04/20 13:20:56;;;;;;;2.78;1.38;;;;;;;;;;4998957;28;20026;-75
2023/04/20 13:23:21;;;;;;;5.30;1.80;;;;;;;;;;4998191;28;20097;-75
2023/04/20 13:25:47;;;;;;;3.85;1.60;;;;;;;;;;5001287;28;20077;-74
2023/04/20 13:28:12;;;;;;;3.63;1.50;;;;;;;;;;5002017;28;20054;-75
2023/04/20 13:30:38;;;;;;;5.28;1.60;;;;;;;;;;4988755;28;20398;-74
2023/04/20 13:33:03;;;;;;;3.65;1.50;;;;;;;;;;5001920;28;20022;-75
2023/04/20 13:35:29;;;;;;;5.03;1.50;;;;;;;;;;5001519;28;20023;-76
2023/04/20 13:37:55;;;;;;;2.53;1.60;;;;;;;;;;5002063;28;20082;-77
2023/04/20 13:40:20;;;;;;;2.25;1.48;;;;;;;;;;5002082;28;20056;-77
2023/04/20 13:42:46;;;;;;;3.10;1.55;;;;;;;;;;5001473;28;20221;-76
2023/04/20 13:45:11;;;;;;;3.92;1.70;;;;;;;;;;5000182;28;20049;-74
2023/04/20 13:47:37;;;;;;;4.20;1.65;;;;;;;;;;4990455;28;20065;-73
2023/04/20 13:50:03;;;;;;;3.13;1.73;;;;;;;;;;4996995;28;20049;-73
2023/04/20 13:52:29;;;;;;;7.40;1.50;;;;;;;;;;4999445;28;20106;-73
2023/04/20 13:54:54;;;;;;;3.10;1.60;;;;;;;;;;4997783;28;20030;-73
2023/04/20 13:57:20;;;;;;;2.47;1.45;;;;;;;;;;4994495;28;20038;-74
2023/04/20 13:59:45;;;;;;;3.45;1.70;;;;;;;;;;4990283;28;20502;-73
2023/04/20 14:02:10;;;;;;;6.07;1.60;;;;;;;;;;4989743;28;20030;-73
2023/04/20 14:04:36;;;;;;;4.65;1.50;;;;;;;;;;4989639;28;20042;-73
2023/04/20 14:07:01;;;;;;;4.75;1.42;;;;;;;;;;4990558;28;20483;-73
2023/04/20 14:09:28;;;;;;;2.70;1.40;;;;;;;;;;4997209;28;20049;-73
2023/04/20 14:11:54;;;;;;;3.40;1.50;;;;;;;;;;4993137;28;20097;-73
2023/04/20 14:14:19;;;;;;;3.17;1.50;;;;;;;;;;4988791;28;20038;-73
2023/04/20 14:16:46;;;;;;;4.65;1.60;;;;;;;;;;4990340;28;20104;-73
2023/04/20 14:19:12;;;;;;;3.42;1.58;;;;;;;;;;4990077;28;20410;-73
2023/04/20 14:21:39;;;;;;;3.55;1.70;;;;;;;;;;4989740;28;20031;-73
2023/04/20 14:24:05;;;;;;;3.33;1.63;;;;;;;;;;4990224;28;20034;-73
2023/04/20 14:26:31;;;;;;;6.55;1.67;;;;;;;;;;4988724;28;20026;-73
2023/04/20 14:28:56;;;;;;;3.13;1.38;;;;;;;;;;4989725;28;20046;-74
2023/04/20 14:31:22;;;;;;;4.95;1.70;;;;;;;;;;4989898;28;20026;-73
2023/04/20 14:33:48;;;;;;;2.78;1.40;;;;;;;;;;4990318;28;20026;-73
2023/04/20 14:36:13;;;;;;;2.92;1.70;;;;;;;;;;4990021;28;20487;-73
2023/04/20 14:38:38;;;;;;;6.82;1.75;;;;;;;;;;4989744;28;20037;-73